sensor_id;sensor_type;location;lat;lon;timestamp;P1;durP1;ratioP1;P2;durP2;ratioP2
61635;SDS011;59438;45.014;39.006;2023-06-14T00:00:04;13.65;;;5.43;;
61635;SDS011;59438;45.014;39.006;2023-06-14T00:02:31;8.32;;;4.63;;
61635;SDS011;59438;45.014;39.006;2023-06-14T00:04:57;14.35;;;4.85;;
61635;SDS011;59438;45.014;39.006;2023-06-14T00:07:33;9.63;;;5.00;;
61635;SDS011;59438;45.014;39.006;2023-06-14T00:10:02;11.82;;;5.20;;
61635;SDS011;59438;45.014;39.006;2023-06-14T00:12:29;12.30;;;5.25;;
61635;SDS011;59438;45.014;39.006;2023-06-14T00:14:55;12.23;;;4.97;;
61635;SDS011;59438;45.014;39.006;2023-06-14T00:17:22;15.82;;;5.15;;
61635;SDS011;59438;45.014;39.006;2023-06-14T00:19:48;11.27;;;5.22;;
61635;SDS011;59438;45.014;39.006;2023-06-14T00:22:14;9.18;;;4.97;;
61635;SDS011;59438;45.014;39.006;2023-06-14T00:24:41;9.63;;;5.20;;
61635;SDS011;59438;45.014;39.006;2023-06-14T00:27:08;13.27;;;5.97;;
61635;SDS011;59438;45.014;39.006;2023-06-14T00:29:35;9.88;;;5.47;;
61635;SDS011;59438;45.014;39.006;2023-06-14T00:32:01;12.77;;;5.50;;
61635;SDS011;59438;45.014;39.006;2023-06-14T00:34:28;9.40;;;5.53;;
61635;SDS011;59438;45.014;39.006;2023-06-14T00:36:54;13.70;;;5.75;;
61635;SDS011;59438;45.014;39.006;2023-06-14T00:39:20;12.85;;;6.00;;
61635;SDS011;59438;45.014;39.006;2023-06-14T00:41:47;13.52;;;6.65;;
61635;SDS011;59438;45.014;39.006;2023-06-14T00:44:14;15.80;;;5.95;;
61635;SDS011;59438;45.014;39.006;2023-06-14T00:46:42;11.70;;;6.35;;
61635;SDS011;59438;45.014;39.006;2023-06-14T00:49:09;12.32;;;5.88;;
61635;SDS011;59438;45.014;39.006;2023-06-14T00:51:36;17.90;;;6.72;;
61635;SDS011;59438;45.014;39.006;2023-06-14T00:54:02;14.68;;;6.90;;
61635;SDS011;59438;45.014;39.006;2023-06-14T00:56:29;18.33;;;6.85;;
61635;SDS011;59438;45.014;39.006;2023-06-14T00:58:56;12.15;;;6.55;;
61635;SDS011;59438;45.014;39.006;2023-06-14T01:01:24;13.60;;;7.50;;
61635;SDS011;59438;45.014;39.006;2023-06-14T01:03:51;10.85;;;6.38;;
61635;SDS011;59438;45.014;39.006;2023-06-14T01:06:18;15.10;;;6.90;;
61635;SDS011;59438;45.014;39.006;2023-06-14T01:08:50;11.52;;;6.95;;
61635;SDS011;59438;45.014;39.006;2023-06-14T01:11:22;12.43;;;6.65;;
61635;SDS011;59438;45.014;39.006;2023-06-14T01:13:54;11.63;;;6.75;;
61635;SDS011;59438;45.014;39.006;2023-06-14T01:16:22;14.40;;;7.47;;
61635;SDS011;59438;45.014;39.006;2023-06-14T01:18:51;12.40;;;6.70;;
61635;SDS011;59438;45.014;39.006;2023-06-14T01:21:22;19.17;;;7.30;;
61635;SDS011;59438;45.014;39.006;2023-06-14T01:23:50;14.70;;;7.15;;
61635;SDS011;59438;45.014;39.006;2023-06-14T01:26:17;11.20;;;6.70;;
61635;SDS011;59438;45.014;39.006;2023-06-14T01:28:43;12.60;;;6.53;;
61635;SDS011;59438;45.014;39.006;2023-06-14T01:31:10;9.90;;;5.50;;
61635;SDS011;59438;45.014;39.006;2023-06-14T01:33:37;9.75;;;4.93;;
61635;SDS011;59438;45.014;39.006;2023-06-14T01:36:03;8.75;;;4.90;;
61635;SDS011;59438;45.014;39.006;2023-06-14T01:38:33;11.17;;;4.60;;
61635;SDS011;59438;45.014;39.006;2023-06-14T01:41:01;10.60;;;4.63;;
61635;SDS011;59438;45.014;39.006;2023-06-14T01:43:29;16.92;;;5.22;;
61635;SDS011;59438;45.014;39.006;2023-06-14T01:45:57;17.40;;;4.90;;
61635;SDS011;59438;45.014;39.006;2023-06-14T01:48:25;11.68;;;4.63;;
61635;SDS011;59438;45.014;39.006;2023-06-14T01:50:52;11.20;;;4.53;;
61635;SDS011;59438;45.014;39.006;2023-06-14T01:53:18;10.00;;;5.05;;
61635;SDS011;59438;45.014;39.006;2023-06-14T01:55:45;10.27;;;4.70;;
61635;SDS011;59438;45.014;39.006;2023-06-14T01:58:13;9.88;;;4.50;;
61635;SDS011;59438;45.014;39.006;2023-06-14T02:00:39;13.40;;;4.60;;
61635;SDS011;59438;45.014;39.006;2023-06-14T02:03:06;8.93;;;4.28;;
61635;SDS011;59438;45.014;39.006;2023-06-14T02:05:32;12.07;;;4.55;;
61635;SDS011;59438;45.014;39.006;2023-06-14T02:07:59;8.60;;;4.30;;
61635;SDS011;59438;45.014;39.006;2023-06-14T02:10:25;7.22;;;4.35;;
61635;SDS011;59438;45.014;39.006;2023-06-14T02:12:51;11.32;;;4.60;;
61635;SDS011;59438;45.014;39.006;2023-06-14T02:15:19;7.28;;;4.10;;
61635;SDS011;59438;45.014;39.006;2023-06-14T02:17:46;8.18;;;4.70;;
61635;SDS011;59438;45.014;39.006;2023-06-14T02:20:12;8.85;;;4.43;;
61635;SDS011;59438;45.014;39.006;2023-06-14T02:22:39;11.93;;;4.30;;
61635;SDS011;59438;45.014;39.006;2023-06-14T02:25:05;7.50;;;3.92;;
61635;SDS011;59438;45.014;39.006;2023-06-14T02:27:32;7.55;;;4.03;;
61635;SDS011;59438;45.014;39.006;2023-06-14T02:29:59;7.20;;;4.28;;
61635;SDS011;59438;45.014;39.006;2023-06-14T02:32:26;6.70;;;4.20;;
61635;SDS011;59438;45.014;39.006;2023-06-14T02:34:53;7.75;;;3.75;;
61635;SDS011;59438;45.014;39.006;2023-06-14T02:37:19;5.95;;;4.22;;
61635;SDS011;59438;45.014;39.006;2023-06-14T02:39:46;8.27;;;4.35;;
61635;SDS011;59438;45.014;39.006;2023-06-14T02:42:13;6.50;;;4.30;;
61635;SDS011;59438;45.014;39.006;2023-06-14T02:44:39;11.13;;;4.78;;
61635;SDS011;59438;45.014;39.006;2023-06-14T02:47:05;9.93;;;4.60;;
61635;SDS011;59438;45.014;39.006;2023-06-14T02:49:33;9.52;;;4.90;;
61635;SDS011;59438;45.014;39.006;2023-06-14T02:52:00;8.93;;;4.47;;
61635;SDS011;59438;45.014;39.006;2023-06-14T02:54:26;11.48;;;5.05;;
61635;SDS011;59438;45.014;39.006;2023-06-14T02:56:52;7.07;;;4.22;;
61635;SDS011;59438;45.014;39.006;2023-06-14T02:59:19;7.55;;;4.50;;
61635;SDS011;59438;45.014;39.006;2023-06-14T03:01:45;10.00;;;4.78;;
61635;SDS011;59438;45.014;39.006;2023-06-14T03:04:11;8.85;;;4.30;;
61635;SDS011;59438;45.014;39.006;2023-06-14T03:06:39;7.53;;;4.70;;
61635;SDS011;59438;45.014;39.006;2023-06-14T03:09:06;7.70;;;4.43;;
61635;SDS011;59438;45.014;39.006;2023-06-14T03:11:32;9.13;;;5.07;;
61635;SDS011;59438;45.014;39.006;2023-06-14T03:14:00;6.78;;;4.10;;
61635;SDS011;59438;45.014;39.006;2023-06-14T03:16:26;6.55;;;4.35;;
61635;SDS011;59438;45.014;39.006;2023-06-14T03:18:53;6.88;;;3.97;;
61635;SDS011;59438;45.014;39.006;2023-06-14T03:21:19;6.40;;;3.75;;
61635;SDS011;59438;45.014;39.006;2023-06-14T03:23:47;6.60;;;3.95;;
61635;SDS011;59438;45.014;39.006;2023-06-14T03:26:14;7.15;;;4.05;;
61635;SDS011;59438;45.014;39.006;2023-06-14T03:28:40;7.38;;;4.00;;
61635;SDS011;59438;45.014;39.006;2023-06-14T03:31:07;5.63;;;4.63;;
61635;SDS011;59438;45.014;39.006;2023-06-14T03:33:33;10.75;;;4.38;;
61635;SDS011;59438;45.014;39.006;2023-06-14T03:36:00;7.32;;;4.35;;
61635;SDS011;59438;45.014;39.006;2023-06-14T03:38:26;7.65;;;4.05;;
61635;SDS011;59438;45.014;39.006;2023-06-14T03:40:54;8.98;;;4.05;;
61635;SDS011;59438;45.014;39.006;2023-06-14T03:43:20;6.85;;;4.53;;
61635;SDS011;59438;45.014;39.006;2023-06-14T03:45:47;9.70;;;4.88;;
61635;SDS011;59438;45.014;39.006;2023-06-14T03:48:13;7.47;;;4.70;;
61635;SDS011;59438;45.014;39.006;2023-06-14T03:50:40;8.55;;;4.47;;
61635;SDS011;59438;45.014;39.006;2023-06-14T03:53:07;8.60;;;4.45;;
61635;SDS011;59438;45.014;39.006;2023-06-14T03:55:33;10.50;;;4.53;;
61635;SDS011;59438;45.014;39.006;2023-06-14T03:58:01;8.07;;;4.43;;
61635;SDS011;59438;45.014;39.006;2023-06-14T04:00:27;7.63;;;5.45;;
61635;SDS011;59438;45.014;39.006;2023-06-14T04:02:53;8.15;;;4.90;;
61635;SDS011;59438;45.014;39.006;2023-06-14T04:05:20;11.68;;;5.30;;
61635;SDS011;59438;45.014;39.006;2023-06-14T04:07:46;12.73;;;5.18;;
61635;SDS011;59438;45.014;39.006;2023-06-14T04:10:12;10.00;;;5.43;;
61635;SDS011;59438;45.014;39.006;2023-06-14T04:12:39;8.65;;;5.53;;
61635;SDS011;59438;45.014;39.006;2023-06-14T04:15:08;8.63;;;5.68;;
61635;SDS011;59438;45.014;39.006;2023-06-14T04:17:36;8.30;;;5.78;;
61635;SDS011;59438;45.014;39.006;2023-06-14T04:20:03;11.75;;;5.68;;
61635;SDS011;59438;45.014;39.006;2023-06-14T04:22:30;16.38;;;5.50;;
61635;SDS011;59438;45.014;39.006;2023-06-14T04:24:57;11.98;;;4.80;;
61635;SDS011;59438;45.014;39.006;2023-06-14T04:27:23;9.65;;;5.25;;
61635;SDS011;59438;45.014;39.006;2023-06-14T04:29:50;8.82;;;5.22;;
61635;SDS011;59438;45.014;39.006;2023-06-14T04:32:18;10.10;;;5.45;;
61635;SDS011;59438;45.014;39.006;2023-06-14T04:34:44;5.95;;;5.05;;
61635;SDS011;59438;45.014;39.006;2023-06-14T04:37:10;14.60;;;5.20;;
61635;SDS011;59438;45.014;39.006;2023-06-14T04:39:36;12.32;;;5.10;;
61635;SDS011;59438;45.014;39.006;2023-06-14T04:42:03;8.43;;;4.80;;
61635;SDS011;59438;45.014;39.006;2023-06-14T04:44:30;13.77;;;5.85;;
61635;SDS011;59438;45.014;39.006;2023-06-14T04:46:56;10.07;;;5.38;;
61635;SDS011;59438;45.014;39.006;2023-06-14T04:49:24;11.63;;;5.50;;
61635;SDS011;59438;45.014;39.006;2023-06-14T04:51:51;9.45;;;5.97;;
61635;SDS011;59438;45.014;39.006;2023-06-14T04:54:17;13.02;;;6.00;;
61635;SDS011;59438;45.014;39.006;2023-06-14T04:56:43;9.93;;;5.60;;
61635;SDS011;59438;45.014;39.006;2023-06-14T04:59:10;11.02;;;5.63;;
61635;SDS011;59438;45.014;39.006;2023-06-14T05:01:36;9.00;;;6.03;;
61635;SDS011;59438;45.014;39.006;2023-06-14T05:04:03;12.98;;;6.03;;
61635;SDS011;59438;45.014;39.006;2023-06-14T05:06:31;10.82;;;5.03;;
61635;SDS011;59438;45.014;39.006;2023-06-14T05:08:57;11.30;;;5.25;;
61635;SDS011;59438;45.014;39.006;2023-06-14T05:11:24;11.82;;;5.03;;
61635;SDS011;59438;45.014;39.006;2023-06-14T05:13:50;8.57;;;5.18;;
61635;SDS011;59438;45.014;39.006;2023-06-14T05:16:16;8.32;;;5.28;;
61635;SDS011;59438;45.014;39.006;2023-06-14T05:18:42;11.85;;;5.25;;
61635;SDS011;59438;45.014;39.006;2023-06-14T05:21:09;10.57;;;4.88;;
61635;SDS011;59438;45.014;39.006;2023-06-14T05:23:37;11.05;;;5.07;;
61635;SDS011;59438;45.014;39.006;2023-06-14T05:26:03;13.02;;;4.43;;
61635;SDS011;59438;45.014;39.006;2023-06-14T05:28:29;6.78;;;4.55;;
61635;SDS011;59438;45.014;39.006;2023-06-14T05:30:56;9.70;;;4.40;;
61635;SDS011;59438;45.014;39.006;2023-06-14T05:33:22;10.93;;;4.78;;
61635;SDS011;59438;45.014;39.006;2023-06-14T05:35:48;8.23;;;4.53;;
61635;SDS011;59438;45.014;39.006;2023-06-14T05:38:15;12.00;;;4.80;;
61635;SDS011;59438;45.014;39.006;2023-06-14T05:40:42;7.93;;;4.30;;
61635;SDS011;59438;45.014;39.006;2023-06-14T05:43:09;10.10;;;4.63;;
61635;SDS011;59438;45.014;39.006;2023-06-14T05:45:35;7.40;;;4.45;;
61635;SDS011;59438;45.014;39.006;2023-06-14T05:48:01;9.70;;;4.45;;
61635;SDS011;59438;45.014;39.006;2023-06-14T05:50:28;11.48;;;5.05;;
61635;SDS011;59438;45.014;39.006;2023-06-14T05:52:54;11.95;;;4.40;;
61635;SDS011;59438;45.014;39.006;2023-06-14T05:55:21;17.17;;;5.05;;
61635;SDS011;59438;45.014;39.006;2023-06-14T05:57:48;9.63;;;4.57;;
61635;SDS011;59438;45.014;39.006;2023-06-14T06:00:15;7.47;;;4.22;;
61635;SDS011;59438;45.014;39.006;2023-06-14T06:02:42;10.93;;;4.55;;
61635;SDS011;59438;45.014;39.006;2023-06-14T06:05:09;9.98;;;4.85;;
61635;SDS011;59438;45.014;39.006;2023-06-14T06:07:36;7.85;;;4.43;;
61635;SDS011;59438;45.014;39.006;2023-06-14T06:10:03;6.78;;;4.25;;
61635;SDS011;59438;45.014;39.006;2023-06-14T06:12:30;7.85;;;4.70;;
61635;SDS011;59438;45.014;39.006;2023-06-14T06:14:58;10.23;;;4.78;;
61635;SDS011;59438;45.014;39.006;2023-06-14T06:17:24;6.78;;;4.60;;
61635;SDS011;59438;45.014;39.006;2023-06-14T06:19:51;6.40;;;4.60;;
61635;SDS011;59438;45.014;39.006;2023-06-14T06:22:17;13.15;;;5.07;;
61635;SDS011;59438;45.014;39.006;2023-06-14T06:24:43;6.78;;;4.10;;
61635;SDS011;59438;45.014;39.006;2023-06-14T06:27:10;9.57;;;4.63;;
61635;SDS011;59438;45.014;39.006;2023-06-14T06:29:36;6.93;;;4.55;;
61635;SDS011;59438;45.014;39.006;2023-06-14T06:32:04;9.27;;;4.30;;
61635;SDS011;59438;45.014;39.006;2023-06-14T06:34:31;12.68;;;4.68;;
61635;SDS011;59438;45.014;39.006;2023-06-14T06:36:58;8.80;;;5.30;;
61635;SDS011;59438;45.014;39.006;2023-06-14T06:39:24;7.72;;;4.53;;
61635;SDS011;59438;45.014;39.006;2023-06-14T06:41:50;14.30;;;4.65;;
61635;SDS011;59438;45.014;39.006;2023-06-14T06:44:17;9.90;;;4.35;;
61635;SDS011;59438;45.014;39.006;2023-06-14T06:46:43;11.93;;;4.70;;
61635;SDS011;59438;45.014;39.006;2023-06-14T06:49:11;11.32;;;4.00;;
61635;SDS011;59438;45.014;39.006;2023-06-14T06:51:37;16.33;;;4.97;;
61635;SDS011;59438;45.014;39.006;2023-06-14T06:54:07;9.43;;;4.55;;
61635;SDS011;59438;45.014;39.006;2023-06-14T06:56:33;9.70;;;4.53;;
61635;SDS011;59438;45.014;39.006;2023-06-14T06:58:59;12.55;;;4.25;;
61635;SDS011;59438;45.014;39.006;2023-06-14T07:01:26;10.07;;;5.00;;
61635;SDS011;59438;45.014;39.006;2023-06-14T07:03:52;10.60;;;4.57;;
61635;SDS011;59438;45.014;39.006;2023-06-14T07:06:20;9.10;;;4.47;;
61635;SDS011;59438;45.014;39.006;2023-06-14T07:08:46;11.35;;;4.20;;
61635;SDS011;59438;45.014;39.006;2023-06-14T07:11:13;10.38;;;4.35;;
61635;SDS011;59438;45.014;39.006;2023-06-14T07:13:39;9.25;;;4.43;;
61635;SDS011;59438;45.014;39.006;2023-06-14T07:16:05;12.10;;;4.60;;
61635;SDS011;59438;45.014;39.006;2023-06-14T07:18:32;7.57;;;4.20;;
61635;SDS011;59438;45.014;39.006;2023-06-14T07:20:58;7.93;;;3.88;;
61635;SDS011;59438;45.014;39.006;2023-06-14T07:23:26;13.65;;;4.63;;
61635;SDS011;59438;45.014;39.006;2023-06-14T07:25:52;6.30;;;4.57;;
61635;SDS011;59438;45.014;39.006;2023-06-14T07:28:18;5.53;;;4.05;;
61635;SDS011;59438;45.014;39.006;2023-06-14T07:30:45;8.10;;;3.92;;
61635;SDS011;59438;45.014;39.006;2023-06-14T07:33:11;9.32;;;4.78;;
61635;SDS011;59438;45.014;39.006;2023-06-14T07:35:37;8.32;;;3.95;;
61635;SDS011;59438;45.014;39.006;2023-06-14T07:38:04;8.13;;;3.75;;
61635;SDS011;59438;45.014;39.006;2023-06-14T07:40:32;8.70;;;3.97;;
61635;SDS011;59438;45.014;39.006;2023-06-14T07:42:58;8.45;;;4.20;;
61635;SDS011;59438;45.014;39.006;2023-06-14T07:45:24;10.65;;;4.13;;
61635;SDS011;59438;45.014;39.006;2023-06-14T07:47:51;6.78;;;3.70;;
61635;SDS011;59438;45.014;39.006;2023-06-14T07:50:17;6.60;;;3.80;;
61635;SDS011;59438;45.014;39.006;2023-06-14T07:52:43;6.00;;;3.78;;
61635;SDS011;59438;45.014;39.006;2023-06-14T07:55:10;6.85;;;3.20;;
61635;SDS011;59438;45.014;39.006;2023-06-14T07:57:38;5.15;;;3.40;;
61635;SDS011;59438;45.014;39.006;2023-06-14T08:00:05;5.60;;;3.40;;
61635;SDS011;59438;45.014;39.006;2023-06-14T08:02:32;8.65;;;3.75;;
61635;SDS011;59438;45.014;39.006;2023-06-14T08:04:58;9.18;;;3.70;;
61635;SDS011;59438;45.014;39.006;2023-06-14T08:07:25;9.43;;;3.55;;
61635;SDS011;59438;45.014;39.006;2023-06-14T08:09:51;8.98;;;4.00;;
61635;SDS011;59438;45.014;39.006;2023-06-14T08:12:17;10.70;;;3.42;;
61635;SDS011;59438;45.014;39.006;2023-06-14T08:14:45;10.15;;;3.60;;
61635;SDS011;59438;45.014;39.006;2023-06-14T08:17:11;7.40;;;4.30;;
61635;SDS011;59438;45.014;39.006;2023-06-14T08:19:38;10.10;;;6.40;;
61635;SDS011;59438;45.014;39.006;2023-06-14T08:22:04;5.32;;;3.90;;
61635;SDS011;59438;45.014;39.006;2023-06-14T08:24:31;9.05;;;3.40;;
61635;SDS011;59438;45.014;39.006;2023-06-14T08:26:57;8.00;;;4.05;;
61635;SDS011;59438;45.014;39.006;2023-06-14T08:29:23;6.05;;;3.30;;
61635;SDS011;59438;45.014;39.006;2023-06-14T08:31:51;7.88;;;3.58;;
61635;SDS011;59438;45.014;39.006;2023-06-14T08:34:18;4.80;;;3.50;;
61635;SDS011;59438;45.014;39.006;2023-06-14T08:36:44;8.18;;;3.90;;
61635;SDS011;59438;45.014;39.006;2023-06-14T08:39:10;6.70;;;3.75;;
61635;SDS011;59438;45.014;39.006;2023-06-14T08:41:37;6.35;;;3.63;;
61635;SDS011;59438;45.014;39.006;2023-06-14T08:44:03;8.38;;;3.92;;
61635;SDS011;59438;45.014;39.006;2023-06-14T08:46:29;7.97;;;3.75;;
61635;SDS011;59438;45.014;39.006;2023-06-14T08:48:59;5.80;;;3.47;;
61635;SDS011;59438;45.014;39.006;2023-06-14T08:51:27;7.55;;;3.60;;
61635;SDS011;59438;45.014;39.006;2023-06-14T08:53:56;5.57;;;3.65;;
61635;SDS011;59438;45.014;39.006;2023-06-14T08:56:23;9.77;;;3.55;;
61635;SDS011;59438;45.014;39.006;2023-06-14T08:58:51;8.00;;;4.13;;
61635;SDS011;59438;45.014;39.006;2023-06-14T09:01:18;5.75;;;3.00;;
61635;SDS011;59438;45.014;39.006;2023-06-14T09:03:45;5.50;;;3.53;;
61635;SDS011;59438;45.014;39.006;2023-06-14T09:06:12;7.13;;;3.40;;
61635;SDS011;59438;45.014;39.006;2023-06-14T09:08:40;5.93;;;3.40;;
61635;SDS011;59438;45.014;39.006;2023-06-14T09:11:08;5.15;;;2.90;;
61635;SDS011;59438;45.014;39.006;2023-06-14T09:13:34;6.07;;;3.38;;
61635;SDS011;59438;45.014;39.006;2023-06-14T09:16:00;7.60;;;3.15;;
61635;SDS011;59438;45.014;39.006;2023-06-14T09:18:33;4.85;;;3.20;;
61635;SDS011;59438;45.014;39.006;2023-06-14T09:21:00;5.35;;;3.10;;
61635;SDS011;59438;45.014;39.006;2023-06-14T09:23:28;6.53;;;3.20;;
61635;SDS011;59438;45.014;39.006;2023-06-14T09:25:55;6.20;;;3.17;;
61635;SDS011;59438;45.014;39.006;2023-06-14T09:28:26;4.25;;;2.85;;
61635;SDS011;59438;45.014;39.006;2023-06-14T09:31:10;5.27;;;3.13;;
61635;SDS011;59438;45.014;39.006;2023-06-14T09:33:38;6.28;;;3.08;;
61635;SDS011;59438;45.014;39.006;2023-06-14T09:36:09;4.28;;;2.80;;
61635;SDS011;59438;45.014;39.006;2023-06-14T09:38:41;4.63;;;2.83;;
61635;SDS011;59438;45.014;39.006;2023-06-14T09:41:07;6.72;;;3.10;;
61635;SDS011;59438;45.014;39.006;2023-06-14T09:43:33;7.45;;;3.05;;
61635;SDS011;59438;45.014;39.006;2023-06-14T09:46:00;7.13;;;2.92;;
61635;SDS011;59438;45.014;39.006;2023-06-14T09:48:27;7.25;;;3.00;;
61635;SDS011;59438;45.014;39.006;2023-06-14T09:50:53;5.85;;;2.83;;
61635;SDS011;59438;45.014;39.006;2023-06-14T09:53:23;5.10;;;3.30;;
61635;SDS011;59438;45.014;39.006;2023-06-14T09:55:52;4.90;;;2.80;;
61635;SDS011;59438;45.014;39.006;2023-06-14T09:58:23;5.43;;;2.97;;
61635;SDS011;59438;45.014;39.006;2023-06-14T10:00:54;5.95;;;3.00;;
61635;SDS011;59438;45.014;39.006;2023-06-14T10:03:24;7.10;;;3.40;;
61635;SDS011;59438;45.014;39.006;2023-06-14T10:05:53;7.88;;;3.17;;
61635;SDS011;59438;45.014;39.006;2023-06-14T10:08:25;6.03;;;2.78;;
61635;SDS011;59438;45.014;39.006;2023-06-14T10:10:54;11.32;;;3.22;;
61635;SDS011;59438;45.014;39.006;2023-06-14T10:13:21;4.82;;;3.20;;
61635;SDS011;59438;45.014;39.006;2023-06-14T10:15:51;6.22;;;2.95;;
61635;SDS011;59438;45.014;39.006;2023-06-14T10:18:25;5.63;;;2.85;;
61635;SDS011;59438;45.014;39.006;2023-06-14T10:21:02;4.78;;;2.75;;
61635;SDS011;59438;45.014;39.006;2023-06-14T10:23:35;6.45;;;2.78;;
61635;SDS011;59438;45.014;39.006;2023-06-14T10:26:07;3.88;;;2.50;;
61635;SDS011;59438;45.014;39.006;2023-06-14T10:28:35;4.70;;;3.10;;
61635;SDS011;59438;45.014;39.006;2023-06-14T10:31:04;6.40;;;2.83;;
61635;SDS011;59438;45.014;39.006;2023-06-14T10:33:31;6.20;;;2.58;;
61635;SDS011;59438;45.014;39.006;2023-06-14T10:36:24;5.47;;;3.03;;
61635;SDS011;59438;45.014;39.006;2023-06-14T10:38:57;6.38;;;2.97;;
61635;SDS011;59438;45.014;39.006;2023-06-14T10:43:52;6.35;;;2.92;;
61635;SDS011;59438;45.014;39.006;2023-06-14T10:46:36;4.50;;;2.60;;
61635;SDS011;59438;45.014;39.006;2023-06-14T10:49:02;4.80;;;2.40;;
61635;SDS011;59438;45.014;39.006;2023-06-14T10:51:29;4.60;;;2.50;;
61635;SDS011;59438;45.014;39.006;2023-06-14T10:54:05;3.72;;;2.60;;
61635;SDS011;59438;45.014;39.006;2023-06-14T10:56:39;5.80;;;2.35;;
61635;SDS011;59438;45.014;39.006;2023-06-14T10:59:12;4.88;;;2.70;;
61635;SDS011;59438;45.014;39.006;2023-06-14T11:01:57;5.22;;;2.88;;
61635;SDS011;59438;45.014;39.006;2023-06-14T11:07:35;5.70;;;2.65;;
61635;SDS011;59438;45.014;39.006;2023-06-14T11:10:16;5.65;;;3.13;;
61635;SDS011;59438;45.014;39.006;2023-06-14T11:15:27;6.07;;;3.03;;
61635;SDS011;59438;45.014;39.006;2023-06-14T11:20:39;7.13;;;2.90;;
61635;SDS011;59438;45.014;39.006;2023-06-14T11:23:06;6.32;;;2.83;;
61635;SDS011;59438;45.014;39.006;2023-06-14T11:25:32;10.10;;;3.55;;
61635;SDS011;59438;45.014;39.006;2023-06-14T11:28:00;5.60;;;3.20;;
61635;SDS011;59438;45.014;39.006;2023-06-14T11:30:26;5.43;;;2.95;;
61635;SDS011;59438;45.014;39.006;2023-06-14T11:32:53;8.07;;;2.70;;
61635;SDS011;59438;45.014;39.006;2023-06-14T11:35:38;7.95;;;2.75;;
61635;SDS011;59438;45.014;39.006;2023-06-14T11:38:04;7.30;;;2.53;;
61635;SDS011;59438;45.014;39.006;2023-06-14T11:40:30;9.70;;;2.83;;
61635;SDS011;59438;45.014;39.006;2023-06-14T11:43:01;4.20;;;2.60;;
61635;SDS011;59438;45.014;39.006;2023-06-14T11:45:28;6.45;;;2.92;;
61635;SDS011;59438;45.014;39.006;2023-06-14T11:47:55;7.45;;;2.80;;
61635;SDS011;59438;45.014;39.006;2023-06-14T11:53:07;8.27;;;2.92;;
61635;SDS011;59438;45.014;39.006;2023-06-14T11:55:35;7.65;;;2.95;;
61635;SDS011;59438;45.014;39.006;2023-06-14T11:58:04;5.15;;;2.67;;
61635;SDS011;59438;45.014;39.006;2023-06-14T12:00:30;5.88;;;2.75;;
61635;SDS011;59438;45.014;39.006;2023-06-14T12:02:57;16.33;;;3.25;;
61635;SDS011;59438;45.014;39.006;2023-06-14T12:05:24;9.38;;;3.67;;
61635;SDS011;59438;45.014;39.006;2023-06-14T12:07:57;9.32;;;2.90;;
61635;SDS011;59438;45.014;39.006;2023-06-14T12:10:24;9.43;;;3.35;;
61635;SDS011;59438;45.014;39.006;2023-06-14T12:12:50;7.70;;;2.92;;
61635;SDS011;59438;45.014;39.006;2023-06-14T12:15:18;8.77;;;2.92;;
61635;SDS011;59438;45.014;39.006;2023-06-14T12:17:44;7.65;;;3.47;;
61635;SDS011;59438;45.014;39.006;2023-06-14T12:20:12;4.95;;;2.80;;
61635;SDS011;59438;45.014;39.006;2023-06-14T12:22:39;6.55;;;3.08;;
61635;SDS011;59438;45.014;39.006;2023-06-14T12:25:16;8.77;;;3.30;;
61635;SDS011;59438;45.014;39.006;2023-06-14T12:27:49;10.35;;;3.50;;
61635;SDS011;59438;45.014;39.006;2023-06-14T12:30:35;4.55;;;2.50;;
61635;SDS011;59438;45.014;39.006;2023-06-14T12:35:47;5.32;;;3.10;;
61635;SDS011;59438;45.014;39.006;2023-06-14T12:38:14;6.78;;;2.90;;
61635;SDS011;59438;45.014;39.006;2023-06-14T12:41:00;5.90;;;3.05;;
61635;SDS011;59438;45.014;39.006;2023-06-14T12:43:26;11.13;;;3.08;;
61635;SDS011;59438;45.014;39.006;2023-06-14T12:45:54;7.60;;;2.97;;
61635;SDS011;59438;45.014;39.006;2023-06-14T12:48:20;10.07;;;3.20;;
61635;SDS011;59438;45.014;39.006;2023-06-14T12:50:47;6.43;;;3.63;;
61635;SDS011;59438;45.014;39.006;2023-06-14T12:53:13;6.03;;;3.08;;
61635;SDS011;59438;45.014;39.006;2023-06-14T12:55:40;9.30;;;3.40;;
61635;SDS011;59438;45.014;39.006;2023-06-14T12:58:06;8.07;;;3.63;;
61635;SDS011;59438;45.014;39.006;2023-06-14T13:00:51;4.72;;;3.17;;
61635;SDS011;59438;45.014;39.006;2023-06-14T13:03:19;8.93;;;3.38;;
61635;SDS011;59438;45.014;39.006;2023-06-14T13:05:45;6.63;;;3.30;;
61635;SDS011;59438;45.014;39.006;2023-06-14T13:08:12;9.85;;;3.60;;
61635;SDS011;59438;45.014;39.006;2023-06-14T13:10:38;10.30;;;3.65;;
61635;SDS011;59438;45.014;39.006;2023-06-14T13:13:04;12.90;;;4.40;;
61635;SDS011;59438;45.014;39.006;2023-06-14T13:15:31;9.40;;;3.75;;
61635;SDS011;59438;45.014;39.006;2023-06-14T13:20:45;9.85;;;3.58;;
61635;SDS011;59438;45.014;39.006;2023-06-14T13:23:11;7.50;;;3.67;;
61635;SDS011;59438;45.014;39.006;2023-06-14T13:25:38;7.50;;;3.55;;
61635;SDS011;59438;45.014;39.006;2023-06-14T13:28:05;6.07;;;3.80;;
61635;SDS011;59438;45.014;39.006;2023-06-14T13:30:31;7.88;;;3.50;;
61635;SDS011;59438;45.014;39.006;2023-06-14T13:32:58;12.82;;;4.05;;
61635;SDS011;59438;45.014;39.006;2023-06-14T13:35:25;6.82;;;3.70;;
61635;SDS011;59438;45.014;39.006;2023-06-14T13:37:53;9.23;;;3.58;;
61635;SDS011;59438;45.014;39.006;2023-06-14T13:40:20;6.63;;;3.70;;
61635;SDS011;59438;45.014;39.006;2023-06-14T13:42:46;12.10;;;3.75;;
61635;SDS011;59438;45.014;39.006;2023-06-14T13:45:13;10.45;;;3.95;;
61635;SDS011;59438;45.014;39.006;2023-06-14T13:47:41;11.38;;;3.78;;
61635;SDS011;59438;45.014;39.006;2023-06-14T13:50:07;9.13;;;3.83;;
61635;SDS011;59438;45.014;39.006;2023-06-14T13:52:34;10.45;;;3.10;;
61635;SDS011;59438;45.014;39.006;2023-06-14T13:55:20;7.30;;;3.30;;
61635;SDS011;59438;45.014;39.006;2023-06-14T13:57:47;9.15;;;3.58;;
61635;SDS011;59438;45.014;39.006;2023-06-14T14:00:13;7.00;;;3.50;;
61635;SDS011;59438;45.014;39.006;2023-06-14T14:02:58;9.95;;;3.50;;
61635;SDS011;59438;45.014;39.006;2023-06-14T14:05:25;10.88;;;3.80;;
61635;SDS011;59438;45.014;39.006;2023-06-14T14:08:09;5.05;;;3.15;;
61635;SDS011;59438;45.014;39.006;2023-06-14T14:10:37;12.73;;;3.85;;
61635;SDS011;59438;45.014;39.006;2023-06-14T14:13:03;9.23;;;3.80;;
61635;SDS011;59438;45.014;39.006;2023-06-14T14:15:30;6.72;;;3.70;;
61635;SDS011;59438;45.014;39.006;2023-06-14T14:17:56;7.68;;;3.70;;
61635;SDS011;59438;45.014;39.006;2023-06-14T14:20:22;5.68;;;3.67;;
61635;SDS011;59438;45.014;39.006;2023-06-14T14:22:49;7.97;;;3.67;;
61635;SDS011;59438;45.014;39.006;2023-06-14T14:28:01;11.20;;;3.90;;
61635;SDS011;59438;45.014;39.006;2023-06-14T14:33:12;6.50;;;3.65;;
61635;SDS011;59438;45.014;39.006;2023-06-14T14:35:39;9.93;;;3.72;;
61635;SDS011;59438;45.014;39.006;2023-06-14T14:38:05;5.07;;;3.50;;
61635;SDS011;59438;45.014;39.006;2023-06-14T14:40:32;6.68;;;3.50;;
61635;SDS011;59438;45.014;39.006;2023-06-14T14:42:58;6.63;;;3.53;;
61635;SDS011;59438;45.014;39.006;2023-06-14T14:45:26;5.40;;;3.25;;
61635;SDS011;59438;45.014;39.006;2023-06-14T14:47:52;7.95;;;3.38;;
61635;SDS011;59438;45.014;39.006;2023-06-14T14:50:19;7.70;;;3.30;;
61635;SDS011;59438;45.014;39.006;2023-06-14T14:55:31;6.95;;;3.40;;
61635;SDS011;59438;45.014;39.006;2023-06-14T14:57:57;7.03;;;3.85;;
61635;SDS011;59438;45.014;39.006;2023-06-14T15:03:09;6.97;;;3.83;;